Time;durP1;ratioP1;P1;durP2;ratioP2;P2;SDS_P1;SDS_P2;PMS_P1;PMS_P2;Temp;Humidity;BMP_temperature;BMP_pressure;BME280_temperature;BME280_humidity;BME280_pressure;Samples;Min_cycle;Max_cycle;Signal;HPM_P1;HPM_P2
2021/10/16 00:01:42;;;;;;;16.00;5.18;;;;;;;;;;4301652;33;20152;-73
2021/10/16 00:07:15;;;;;;;11.85;5.32;;;;;;;;;;4284135;33;20182;-73
2021/10/16 00:09:40;;;;;;;14.70;4.85;;;;;;;;;;4289914;33;20258;-74
2021/10/16 00:12:13;;;;;;;17.87;6.03;;;;;;;;;;4291561;33;20231;-73
2021/10/16 00:14:38;;;;;;;16.48;7.97;;;;;;;;;;4303124;33;20152;-73
2021/10/16 00:17:06;;;;;;;23.62;8.52;;;;;;;;;;4288765;33;20202;-73
2021/10/16 00:19:55;;;;;;;23.70;8.50;;;;;;;;;;4301817;33;20140;-72
2021/10/16 00:22:20;;;;;;;11.55;5.37;;;;;;;;;;4295915;33;20215;-73
2021/10/16 00:24:49;;;;;;;15.35;5.28;;;;;;;;;;4283168;33;20247;-73
2021/10/16 00:27:15;;;;;;;17.55;5.62;;;;;;;;;;4294445;33;20168;-72
2021/10/16 00:30:03;;;;;;;20.80;5.10;;;;;;;;;;4301920;33;20176;-72
2021/10/16 00:32:46;;;;;;;17.42;5.22;;;;;;;;;;4300399;33;20168;-73
2021/10/16 00:35:21;;;;;;;14.35;5.07;;;;;;;;;;4301416;33;20198;-73
2021/10/16 00:37:57;;;;;;;15.85;5.10;;;;;;;;;;4303289;33;20223;-72
2021/10/16 00:40:35;;;;;;;;;;;;;;;;;;;;;
2021/10/16 00:43:07;;;;;;;12.52;4.65;;;;;;;;;;4301920;33;20570;-74
2021/10/16 00:45:53;;;;;;;11.12;4.18;;;;;;;;;;4303925;33;20454;-73
2021/10/16 00:48:40;;;;;;;12.18;3.95;;;;;;;;;;4291354;33;20172;-72
2021/10/16 00:51:37;;;;;;;9.23;4.12;;;;;;;;;;4304982;33;20202;-73
2021/10/16 00:54:10;;;;;;;14.50;4.53;;;;;;;;;;4288888;33;20243;-73
2021/10/16 00:56:37;;;;;;;7.55;3.58;;;;;;;;;;4287981;33;20176;-73
2021/10/16 00:59:04;;;;;;;17.70;4.78;;;;;;;;;;4276830;33;20207;-73
2021/10/16 01:01:32;;;;;;;10.07;4.07;;;;;;;;;;4289795;33;20129;-73
2021/10/16 01:04:03;;;;;;;10.57;4.12;;;;;;;;;;4276942;33;20578;-73
2021/10/16 01:06:29;;;;;;;14.00;4.12;;;;;;;;;;4298768;33;20153;-74
2021/10/16 01:08:57;;;;;;;15.60;3.62;;;;;;;;;;4291182;33;20157;-74
2021/10/16 01:11:34;;;;;;;12.50;3.75;;;;;;;;;;4303966;33;20137;-74
2021/10/16 01:14:21;;;;;;;9.35;3.45;;;;;;;;;;4304436;33;20128;-73
2021/10/16 01:16:49;;;;;;;18.15;7.80;;;;;;;;;;4291078;33;20190;-73
2021/10/16 01:19:15;;;;;;;9.82;3.35;;;;;;;;;;4303183;33;20171;-73
2021/10/16 01:22:04;;;;;;;13.65;4.65;;;;;;;;;;4302517;33;20252;-73
2021/10/16 01:25:35;;;;;;;;;;;;;;;;;;;;;
2021/10/16 01:28:01;;;;;;;9.40;3.50;;;;;;;;;;4293765;33;20631;-73
2021/10/16 01:30:26;;;;;;;11.38;3.85;;;;;;;;;;4287300;33;20603;-73
2021/10/16 01:36:06;;;;;;;10.38;3.85;;;;;;;;;;4270876;33;20166;-73
2021/10/16 01:38:57;;;;;;;15.82;4.50;;;;;;;;;;4229291;33;20659;-73
2021/10/16 01:42:02;;;;;;;;;;;;;;;;;;;;;
2021/10/16 01:44:37;;;;;;;13.40;5.00;;;;;;;;;;4300751;33;20251;-73
2021/10/16 01:47:02;;;;;;;12.20;4.65;;;;;;;;;;4303895;33;20571;-72
2021/10/16 01:49:27;;;;;;;10.80;4.87;;;;;;;;;;4289716;33;20182;-73
2021/10/16 01:51:57;;;;;;;14.18;4.80;;;;;;;;;;4289727;33;20191;-72
2021/10/16 01:54:31;;;;;;;16.67;5.03;;;;;;;;;;4290585;33;20156;-72
2021/10/16 01:57:02;;;;;;;14.30;5.22;;;;;;;;;;4290478;33;20152;-72
2021/10/16 01:59:28;;;;;;;14.32;5.18;;;;;;;;;;4303559;33;20181;-72
2021/10/16 02:02:24;;;;;;;;;;;;;;;;;;;;;
2021/10/16 02:04:49;;;;;;;16.40;5.07;;;;;;;;;;4303418;33;20179;-72
2021/10/16 02:07:18;;;;;;;13.38;4.45;;;;;;;;;;4289616;33;20168;-72
2021/10/16 02:09:43;;;;;;;19.23;5.03;;;;;;;;;;4303112;33;20174;-73
2021/10/16 02:12:08;;;;;;;17.23;5.45;;;;;;;;;;4289733;33;20470;-72
2021/10/16 02:14:34;;;;;;;15.45;4.57;;;;;;;;;;4302712;33;20136;-72
2021/10/16 02:17:02;;;;;;;17.30;5.32;;;;;;;;;;4302642;33;20152;-73
2021/10/16 02:19:27;;;;;;;11.50;4.85;;;;;;;;;;4289656;33;20159;-72
2021/10/16 02:21:52;;;;;;;16.87;5.00;;;;;;;;;;4303021;33;20578;-72
2021/10/16 02:24:29;;;;;;;13.70;4.80;;;;;;;;;;4298829;33;20171;-72
2021/10/16 02:26:54;;;;;;;16.42;5.43;;;;;;;;;;4299250;33;20183;-72
2021/10/16 02:29:46;;;;;;;13.62;4.82;;;;;;;;;;4290938;33;20204;-73
2021/10/16 02:32:32;;;;;;;17.92;4.90;;;;;;;;;;4292861;33;20195;-72
2021/10/16 02:35:06;;;;;;;16.20;5.00;;;;;;;;;;4294433;33;20194;-72
2021/10/16 02:37:35;;;;;;;14.45;4.50;;;;;;;;;;4302788;33;20500;-72
2021/10/16 02:40:29;;;;;;;17.98;4.60;;;;;;;;;;4302636;33;20254;-73
2021/10/16 02:42:53;;;;;;;17.65;5.15;;;;;;;;;;4302688;33;20223;-72
2021/10/16 02:45:19;;;;;;;14.93;4.40;;;;;;;;;;4302072;33;20141;-71
2021/10/16 02:51:12;;;;;;;13.90;4.47;;;;;;;;;;4302622;33;20645;-72
2021/10/16 02:54:02;;;;;;;10.93;4.03;;;;;;;;;;4294694;33;20180;-72
2021/10/16 02:56:36;;;;;;;14.55;4.03;;;;;;;;;;4302603;33;20224;-72
2021/10/16 02:59:11;;;;;;;;;;;;;;;;;;;;;
2021/10/16 03:01:37;;;;;;;14.35;4.20;;;;;;;;;;4301120;33;20183;-74
2021/10/16 03:04:02;;;;;;;14.45;4.78;;;;;;;;;;4301085;33;20507;-73
2021/10/16 03:06:54;;;;;;;12.85;3.95;;;;;;;;;;4302324;33;20204;-74
2021/10/16 03:09:33;;;;;;;14.77;4.20;;;;;;;;;;4295201;33;20164;-73
2021/10/16 03:12:00;;;;;;;11.73;3.95;;;;;;;;;;4289217;33;20186;-73
2021/10/16 03:14:25;;;;;;;12.30;4.32;;;;;;;;;;4286058;33;20220;-74
2021/10/16 03:16:51;;;;;;;11.63;4.18;;;;;;;;;;4289036;33;20560;-73
2021/10/16 03:19:16;;;;;;;12.98;3.53;;;;;;;;;;4287321;33;20628;-74
2021/10/16 03:21:41;;;;;;;13.18;3.50;;;;;;;;;;4287854;33;20156;-74
2021/10/16 03:24:18;;;;;;;16.70;4.07;;;;;;;;;;4274045;33;20521;-74
2021/10/16 03:29:48;;;;;;;8.40;3.28;;;;;;;;;;4264412;33;20410;-74
2021/10/16 03:32:14;;;;;;;12.50;3.42;;;;;;;;;;4288142;33;20124;-73
2021/10/16 03:34:42;;;;;;;14.63;4.43;;;;;;;;;;4287711;33;20159;-72
2021/10/16 03:37:13;;;;;;;9.65;3.75;;;;;;;;;;4282435;33;20220;-73
2021/10/16 03:39:39;;;;;;;14.07;3.42;;;;;;;;;;4287769;33;20137;-73
2021/10/16 03:42:06;;;;;;;12.32;3.10;;;;;;;;;;4286032;33;20183;-73
2021/10/16 03:44:32;;;;;;;13.25;3.28;;;;;;;;;;4285983;33;20157;-73
2021/10/16 03:46:57;;;;;;;12.75;3.03;;;;;;;;;;4287105;33;20152;-72
2021/10/16 03:49:22;;;;;;;13.48;3.03;;;;;;;;;;4288258;33;20153;-72
2021/10/16 03:51:51;;;;;;;16.90;3.70;;;;;;;;;;4287804;33;20151;-72
2021/10/16 03:54:19;;;;;;;16.30;3.10;;;;;;;;;;4274094;33;20153;-73
2021/10/16 03:56:44;;;;;;;12.15;3.10;;;;;;;;;;4286716;33;20149;-73
2021/10/16 03:59:36;;;;;;;11.68;2.95;;;;;;;;;;4287301;33;20444;-72
2021/10/16 04:02:19;;;;;;;16.50;3.00;;;;;;;;;;4281647;33;20160;-72
2021/10/16 04:04:45;;;;;;;18.23;2.80;;;;;;;;;;4294058;33;20172;-73
2021/10/16 04:07:10;;;;;;;7.50;2.65;;;;;;;;;;4288387;33;20196;-73
2021/10/16 04:09:36;;;;;;;13.25;2.92;;;;;;;;;;4287939;33;20176;-73
2021/10/16 04:12:03;;;;;;;7.55;3.03;;;;;;;;;;4288313;33;20175;-73
2021/10/16 04:14:38;;;;;;;16.27;3.28;;;;;;;;;;4301800;33;20129;-72
2021/10/16 04:19:59;;;;;;;9.55;3.28;;;;;;;;;;4256479;33;20616;-72
2021/10/16 04:22:27;;;;;;;10.02;2.72;;;;;;;;;;4283876;33;20211;-72
2021/10/16 04:24:55;;;;;;;10.57;2.70;;;;;;;;;;4288395;33;20302;-73
2021/10/16 04:27:23;;;;;;;11.77;2.50;;;;;;;;;;4301437;33;20192;-72
2021/10/16 04:29:48;;;;;;;10.95;2.85;;;;;;;;;;4299956;33;20165;-73
2021/10/16 04:32:37;;;;;;;;;;;;;;;;;;;;;
2021/10/16 04:35:06;;;;;;;17.35;3.05;;;;;;;;;;4279330;33;20183;-72
2021/10/16 04:37:32;;;;;;;10.80;2.70;;;;;;;;;;4287162;33;20175;-72
2021/10/16 04:40:21;;;;;;;16.45;2.97;;;;;;;;;;4286889;33;20207;-73
2021/10/16 04:43:01;;;;;;;9.02;2.83;;;;;;;;;;4287253;33;20443;-72
2021/10/16 04:45:26;;;;;;;8.60;2.37;;;;;;;;;;4275138;33;21502;-72
2021/10/16 04:47:52;;;;;;;12.93;3.10;;;;;;;;;;4301737;33;20191;-73
2021/10/16 04:50:26;;;;;;;11.45;3.22;;;;;;;;;;4301097;33;20171;-74
2021/10/16 04:52:59;;;;;;;10.65;2.90;;;;;;;;;;4301535;33;20159;-73
2021/10/16 04:55:35;;;;;;;15.65;3.78;;;;;;;;;;4301167;33;20236;-73
2021/10/16 04:58:08;;;;;;;15.30;3.33;;;;;;;;;;4301899;33;20198;-73
2021/10/16 05:00:33;;;;;;;17.83;2.92;;;;;;;;;;4273967;33;20168;-73
2021/10/16 05:02:58;;;;;;;14.40;3.40;;;;;;;;;;4296673;33;20144;-74
2021/10/16 05:05:27;;;;;;;11.48;3.05;;;;;;;;;;4300991;33;20160;-71
2021/10/16 05:07:52;;;;;;;15.13;3.25;;;;;;;;;;4301006;33;20200;-72
2021/10/16 05:10:17;;;;;;;16.45;2.70;;;;;;;;;;4300207;33;20227;-72
2021/10/16 05:12:52;;;;;;;12.00;3.00;;;;;;;;;;4301113;33;20167;-72
2021/10/16 05:15:17;;;;;;;12.68;2.70;;;;;;;;;;4301192;33;20136;-72
2021/10/16 05:17:43;;;;;;;8.00;2.45;;;;;;;;;;4300900;33;20183;-73
2021/10/16 05:20:11;;;;;;;14.43;2.90;;;;;;;;;;4301189;33;20148;-73
2021/10/16 05:22:36;;;;;;;12.95;2.65;;;;;;;;;;4303367;33;20527;-73
2021/10/16 05:25:01;;;;;;;13.65;2.72;;;;;;;;;;4302597;33;20232;-73
2021/10/16 05:28:02;;;;;;;;;;;;;;;;;;;;;
2021/10/16 05:30:23;;;;;;;13.80;2.78;;;;;;;;;;4301597;33;20164;-73
2021/10/16 05:32:54;;;;;;;11.32;2.60;;;;;;;;;;4290576;33;20164;-72
2021/10/16 05:35:19;;;;;;;9.85;2.62;;;;;;;;;;4303910;33;20153;-72
2021/10/16 05:37:44;;;;;;;15.98;3.08;;;;;;;;;;4290484;33;20180;-73
2021/10/16 05:40:10;;;;;;;11.90;2.70;;;;;;;;;;4290218;33;20230;-73
2021/10/16 05:42:35;;;;;;;10.55;2.80;;;;;;;;;;4290531;33;20263;-73
2021/10/16 05:45:09;;;;;;;14.57;3.35;;;;;;;;;;4303683;33;20203;-73
2021/10/16 05:47:36;;;;;;;15.15;3.17;;;;;;;;;;4303445;33;20148;-73
2021/10/16 05:50:03;;;;;;;12.50;3.03;;;;;;;;;;4289665;33;20232;-71
2021/10/16 05:52:31;;;;;;;12.90;3.37;;;;;;;;;;4303224;33;20637;-73
2021/10/16 05:54:56;;;;;;;11.23;3.40;;;;;;;;;;4303605;33;20168;-72
2021/10/16 05:57:22;;;;;;;15.05;3.10;;;;;;;;;;4303297;33;20140;-73
2021/10/16 05:59:47;;;;;;;15.48;3.33;;;;;;;;;;4302882;33;20151;-72
2021/10/16 06:02:14;;;;;;;13.48;2.58;;;;;;;;;;4286824;33;20199;-72
2021/10/16 06:04:40;;;;;;;11.00;3.20;;;;;;;;;;4288929;33;20225;-74
2021/10/16 06:07:05;;;;;;;16.20;3.10;;;;;;;;;;4287231;33;20504;-73
2021/10/16 06:09:30;;;;;;;12.73;2.90;;;;;;;;;;4301406;33;20227;-73
2021/10/16 06:11:58;;;;;;;12.40;3.25;;;;;;;;;;4302119;33;20167;-73
2021/10/16 06:14:42;;;;;;;11.07;3.20;;;;;;;;;;4301687;33;20179;-72
2021/10/16 06:17:08;;;;;;;15.95;4.20;;;;;;;;;;4303096;33;20156;-72
2021/10/16 06:19:33;;;;;;;14.38;2.95;;;;;;;;;;4286176;33;20228;-67
2021/10/16 06:21:58;;;;;;;15.57;2.70;;;;;;;;;;4288250;33;20145;-73
2021/10/16 06:24:24;;;;;;;12.82;2.97;;;;;;;;;;4298304;33;20208;-73
2021/10/16 06:26:49;;;;;;;9.80;2.58;;;;;;;;;;4296738;33;20569;-71
2021/10/16 06:29:14;;;;;;;15.23;2.75;;;;;;;;;;4288005;33;20202;-72
2021/10/16 06:31:45;;;;;;;11.05;2.15;;;;;;;;;;4274473;33;20271;-72
2021/10/16 06:34:10;;;;;;;15.00;3.00;;;;;;;;;;4274726;33;20196;-72
2021/10/16 06:36:39;;;;;;;14.05;2.70;;;;;;;;;;4275365;33;20251;-72
2021/10/16 06:39:04;;;;;;;13.52;3.70;;;;;;;;;;4275592;33;20195;-72
2021/10/16 06:41:50;;;;;;;10.07;3.20;;;;;;;;;;4274738;33;20199;-71
2021/10/16 06:44:15;;;;;;;16.65;2.40;;;;;;;;;;4274643;33;20168;-72
2021/10/16 06:46:41;;;;;;;9.70;2.60;;;;;;;;;;4275316;33;20231;-74
2021/10/16 06:49:06;;;;;;;12.52;3.08;;;;;;;;;;4288240;33;20461;-72
2021/10/16 06:51:38;;;;;;;8.32;2.75;;;;;;;;;;4287795;33;20224;-73
2021/10/16 06:54:06;;;;;;;11.25;2.83;;;;;;;;;;4287800;33;20145;-72
2021/10/16 06:56:40;;;;;;;15.00;3.00;;;;;;;;;;4282628;33;20253;-72
2021/10/16 06:59:06;;;;;;;17.25;3.20;;;;;;;;;;4287857;33;20216;-72
2021/10/16 07:01:31;;;;;;;15.70;3.37;;;;;;;;;;4288436;33;20149;-73
2021/10/16 07:03:56;;;;;;;17.60;3.08;;;;;;;;;;4274221;33;20177;-73
2021/10/16 07:06:21;;;;;;;11.20;3.00;;;;;;;;;;4288923;33;20168;-74
2021/10/16 07:08:52;;;;;;;13.73;2.75;;;;;;;;;;4280967;33;20532;-71
2021/10/16 07:11:17;;;;;;;14.63;3.05;;;;;;;;;;4278299;33;20218;-72
2021/10/16 07:13:42;;;;;;;14.77;2.53;;;;;;;;;;4287150;33;20457;-72
2021/10/16 07:16:19;;;;;;;14.73;2.62;;;;;;;;;;4285033;33;20148;-72
2021/10/16 07:19:04;;;;;;;10.65;2.62;;;;;;;;;;4286193;33;20276;-72
2021/10/16 07:22:04;;;;;;;13.10;2.85;;;;;;;;;;4287760;33;20152;-72
2021/10/16 07:24:42;;;;;;;13.52;2.70;;;;;;;;;;4271000;33;20252;-72
2021/10/16 07:27:26;;;;;;;9.13;2.65;;;;;;;;;;4294857;33;20152;-73
2021/10/16 07:29:51;;;;;;;8.43;2.60;;;;;;;;;;4300752;33;20180;-73
2021/10/16 07:32:32;;;;;;;12.60;2.40;;;;;;;;;;4288494;33;20542;-73
2021/10/16 07:35:01;;;;;;;8.63;2.15;;;;;;;;;;4287536;33;20176;-73
2021/10/16 07:37:26;;;;;;;13.05;2.80;;;;;;;;;;4302347;33;20140;-73
2021/10/16 07:40:00;;;;;;;13.35;3.30;;;;;;;;;;4302061;33;20191;-72
2021/10/16 07:42:25;;;;;;;14.93;2.90;;;;;;;;;;4289051;33;20198;-73
2021/10/16 07:45:01;;;;;;;8.50;2.30;;;;;;;;;;4301932;33;20491;-73
2021/10/16 07:47:27;;;;;;;16.52;3.72;;;;;;;;;;4286430;33;20636;-72
2021/10/16 07:52:41;;;;;;;12.27;2.87;;;;;;;;;;4300477;33;20564;-69
2021/10/16 07:55:15;;;;;;;12.65;3.10;;;;;;;;;;4285499;33;20190;-72
2021/10/16 07:58:04;;;;;;;13.27;3.20;;;;;;;;;;4286229;33;20206;-72
2021/10/16 08:00:29;;;;;;;11.95;2.90;;;;;;;;;;4287138;33;20610;-72
2021/10/16 08:02:54;;;;;;;14.45;3.40;;;;;;;;;;4301263;33;20170;-72
2021/10/16 08:05:20;;;;;;;10.52;3.37;;;;;;;;;;4287658;33;20650;-72
2021/10/16 08:07:51;;;;;;;12.10;3.70;;;;;;;;;;4287750;33;20210;-72
2021/10/16 08:10:16;;;;;;;12.65;3.50;;;;;;;;;;4301534;33;20157;-73
2021/10/16 08:12:44;;;;;;;11.57;3.17;;;;;;;;;;4301599;33;20159;-71
2021/10/16 08:15:29;;;;;;;;;;;;;;;;;;;;;
2021/10/16 08:18:00;;;;;;;18.98;4.22;;;;;;;;;;4301385;33;20486;-72
2021/10/16 08:20:29;;;;;;;10.05;3.50;;;;;;;;;;4301556;33;20140;-72
2021/10/16 08:22:54;;;;;;;15.30;4.05;;;;;;;;;;4270148;33;20168;-73
2021/10/16 08:25:25;;;;;;;13.65;4.15;;;;;;;;;;4270374;33;20157;-72
2021/10/16 08:27:50;;;;;;;12.98;3.90;;;;;;;;;;4245721;33;20173;-74
2021/10/16 08:30:21;;;;;;;11.57;3.22;;;;;;;;;;4256423;33;20244;-72
2021/10/16 08:32:47;;;;;;;10.00;2.95;;;;;;;;;;4254724;33;20150;-70
2021/10/16 08:35:12;;;;;;;15.60;3.22;;;;;;;;;;4248805;33;20768;-74
2021/10/16 08:37:38;;;;;;;9.82;2.87;;;;;;;;;;4253988;33;20149;-74
2021/10/16 08:40:04;;;;;;;12.98;3.03;;;;;;;;;;4254589;33;20169;-73
2021/10/16 08:42:38;;;;;;;9.88;3.03;;;;;;;;;;4255667;33;20146;-72
2021/10/16 08:45:35;;;;;;;20.10;3.53;;;;;;;;;;4241563;33;20168;-72
2021/10/16 08:48:11;;;;;;;7.95;2.97;;;;;;;;;;4199914;34;20339;-72
2021/10/16 08:50:37;;;;;;;9.85;2.83;;;;;;;;;;4220225;33;20403;-72
2021/10/16 08:53:02;;;;;;;13.23;3.22;;;;;;;;;;4260129;33;20278;-75
2021/10/16 08:55:27;;;;;;;12.48;3.22;;;;;;;;;;4273441;33;20228;-72
2021/10/16 08:58:02;;;;;;;12.45;3.33;;;;;;;;;;4276536;33;20224;-70
2021/10/16 09:00:36;;;;;;;14.93;3.55;;;;;;;;;;4276295;33;20194;-72
2021/10/16 09:03:21;;;;;;;14.52;3.55;;;;;;;;;;4275904;33;20164;-73
2021/10/16 09:06:04;;;;;;;13.75;3.30;;;;;;;;;;4290152;33;20171;-69
2021/10/16 09:08:40;;;;;;;14.57;3.25;;;;;;;;;;4289116;33;20156;-70
2021/10/16 09:11:11;;;;;;;14.45;3.15;;;;;;;;;;4276235;33;20157;-73
2021/10/16 09:13:42;;;;;;;11.27;2.97;;;;;;;;;;4289774;33;20141;-72
2021/10/16 09:16:25;;;;;;;12.68;3.28;;;;;;;;;;4276395;33;20176;-71
2021/10/16 09:19:09;;;;;;;17.90;2.90;;;;;;;;;;4286855;33;20563;-72
2021/10/16 09:21:35;;;;;;;12.90;3.42;;;;;;;;;;4275304;33;20566;-74
2021/10/16 09:24:06;;;;;;;14.20;3.08;;;;;;;;;;4288741;33;20188;-69
2021/10/16 09:26:41;;;;;;;17.50;3.83;;;;;;;;;;4279791;33;20249;-71
2021/10/16 09:29:08;;;;;;;11.95;3.40;;;;;;;;;;4289823;33;20182;-73
2021/10/16 09:31:37;;;;;;;13.62;3.10;;;;;;;;;;4303837;33;20153;-71
2021/10/16 09:34:12;;;;;;;19.00;4.70;;;;;;;;;;4301732;33;20184;-73
2021/10/16 09:36:38;;;;;;;14.82;3.65;;;;;;;;;;4302656;33;20478;-71
2021/10/16 09:39:05;;;;;;;11.32;2.70;;;;;;;;;;4289508;33;20300;-73
2021/10/16 09:41:32;;;;;;;9.55;3.15;;;;;;;;;;4304065;33;20137;-72
2021/10/16 09:43:58;;;;;;;12.45;2.75;;;;;;;;;;4289717;33;20152;-71
2021/10/16 09:46:24;;;;;;;15.15;3.42;;;;;;;;;;4302984;33;20211;-72
2021/10/16 09:48:50;;;;;;;10.32;3.03;;;;;;;;;;4302928;33;20163;-71
2021/10/16 09:51:16;;;;;;;13.50;3.10;;;;;;;;;;4289814;33;20251;-72
2021/10/16 09:53:42;;;;;;;16.42;3.10;;;;;;;;;;4300866;33;20176;-70
2021/10/16 09:56:08;;;;;;;14.85;2.50;;;;;;;;;;4289955;33;20187;-69
2021/10/16 09:58:34;;;;;;;12.27;2.75;;;;;;;;;;4287864;33;20517;-72
2021/10/16 10:00:59;;;;;;;10.68;3.08;;;;;;;;;;4300793;33;20152;-69
2021/10/16 10:03:28;;;;;;;16.95;3.40;;;;;;;;;;4302237;33;20564;-68
2021/10/16 10:05:53;;;;;;;11.50;3.10;;;;;;;;;;4288894;33;20183;-68
2021/10/16 10:08:19;;;;;;;14.68;2.95;;;;;;;;;;4288754;33;20167;-67
2021/10/16 10:10:46;;;;;;;11.38;3.12;;;;;;;;;;4300802;33;20141;-68
2021/10/16 10:13:11;;;;;;;10.00;2.67;;;;;;;;;;4303020;33;20202;-68
2021/10/16 10:15:37;;;;;;;12.25;2.83;;;;;;;;;;4289272;33;20483;-69
2021/10/16 10:18:56;;;;;;;13.18;4.05;;;;;;;;;;4301884;33;20163;-69
2021/10/16 10:20:48;;;;;;;14.05;2.75;;;;;;;;;;4302556;33;20164;-66
2021/10/16 10:23:20;;;;;;;9.32;2.58;;;;;;;;;;4302649;33;20175;-69
2021/10/16 10:25:46;;;;;;;12.63;3.20;;;;;;;;;;4289368;33;20184;-66
2021/10/16 10:28:11;;;;;;;13.17;2.90;;;;;;;;;;4288418;33;20595;-70
2021/10/16 10:30:36;;;;;;;9.90;3.30;;;;;;;;;;4289281;33;20293;-69
2021/10/16 10:33:20;;;;;;;10.77;2.67;;;;;;;;;;4286879;33;20510;-70
2021/10/16 10:35:57;;;;;;;15.43;2.97;;;;;;;;;;4298820;33;20609;-68
2021/10/16 10:38:33;;;;;;;13.45;3.03;;;;;;;;;;4287315;33;20174;-69
2021/10/16 10:40:58;;;;;;;12.25;2.75;;;;;;;;;;4302435;33;20163;-68
2021/10/16 10:43:36;;;;;;;18.50;3.00;;;;;;;;;;4303044;33;20129;-70
2021/10/16 10:46:14;;;;;;;11.15;3.28;;;;;;;;;;4301989;33;20170;-68
2021/10/16 10:48:46;;;;;;;11.50;3.05;;;;;;;;;;4288168;33;20159;-72
2021/10/16 10:51:35;;;;;;;9.63;3.10;;;;;;;;;;4302370;33;20261;-72
2021/10/16 10:54:15;;;;;;;10.63;2.78;;;;;;;;;;4287963;33;20188;-72
2021/10/16 10:56:41;;;;;;;15.65;2.85;;;;;;;;;;4288705;33;20804;-69
2021/10/16 10:59:12;;;;;;;13.48;3.20;;;;;;;;;;4299724;33;20140;-73
2021/10/16 11:01:43;;;;;;;11.75;2.50;;;;;;;;;;4288121;33;20600;-72
2021/10/16 11:04:09;;;;;;;13.27;2.50;;;;;;;;;;4288716;33;20262;-67
2021/10/16 11:06:34;;;;;;;19.20;3.42;;;;;;;;;;4288893;33;20164;-72
2021/10/16 11:09:15;;;;;;;11.50;2.75;;;;;;;;;;4300763;33;20567;-72
2021/10/16 11:11:54;;;;;;;9.00;2.95;;;;;;;;;;4301425;33;20141;-71
2021/10/16 11:14:19;;;;;;;13.05;2.70;;;;;;;;;;4301564;33;20133;-71
2021/10/16 11:16:54;;;;;;;9.20;3.05;;;;;;;;;;4288644;33;20190;-71
2021/10/16 11:19:19;;;;;;;14.85;3.05;;;;;;;;;;4287730;33;20186;-72
2021/10/16 11:21:50;;;;;;;10.55;2.62;;;;;;;;;;4288161;33;20480;-74
2021/10/16 11:24:15;;;;;;;12.80;2.78;;;;;;;;;;4301906;33;20136;-73
2021/10/16 11:26:49;;;;;;;22.37;12.43;;;;;;;;;;4301287;33;20196;-69
2021/10/16 11:29:26;;;;;;;14.82;2.95;;;;;;;;;;4289253;33;20189;-71
2021/10/16 11:32:09;;;;;;;14.23;3.17;;;;;;;;;;4302201;33;20223;-71
2021/10/16 11:34:34;;;;;;;12.07;2.70;;;;;;;;;;4296179;33;20156;-72
2021/10/16 11:36:59;;;;;;;9.32;2.85;;;;;;;;;;4301735;33;20174;-72
2021/10/16 11:39:24;;;;;;;12.60;2.80;;;;;;;;;;4300820;33;20231;-72
2021/10/16 11:41:54;;;;;;;14.15;3.03;;;;;;;;;;4288299;33;20203;-72
2021/10/16 11:44:19;;;;;;;6.93;2.70;;;;;;;;;;4301253;33;20148;-71
2021/10/16 11:46:44;;;;;;;11.98;2.92;;;;;;;;;;4301820;33;20147;-70
2021/10/16 11:49:09;;;;;;;11.38;3.37;;;;;;;;;;4299386;33;20136;-71
2021/10/16 11:51:35;;;;;;;11.05;3.40;;;;;;;;;;4296605;33;20176;-70
2021/10/16 11:54:14;;;;;;;13.43;4.05;;;;;;;;;;4294299;33;20173;-71
2021/10/16 11:56:40;;;;;;;15.68;4.62;;;;;;;;;;4285996;33;20618;-71
2021/10/16 11:59:05;;;;;;;13.40;3.95;;;;;;;;;;4301738;33;20148;-71
2021/10/16 12:01:32;;;;;;;10.82;5.00;;;;;;;;;;4288004;33;20211;-67
2021/10/16 12:03:59;;;;;;;19.12;5.25;;;;;;;;;;4287954;33;20533;-71
2021/10/16 12:06:28;;;;;;;15.65;4.75;;;;;;;;;;4288108;33;20153;-71
2021/10/16 12:09:00;;;;;;;16.25;4.85;;;;;;;;;;4301276;33;20552;-72
2021/10/16 12:11:32;;;;;;;15.18;5.12;;;;;;;;;;4298752;33;20160;-73
2021/10/16 12:13:58;;;;;;;19.00;5.20;;;;;;;;;;4278237;33;20223;-72
2021/10/16 12:16:25;;;;;;;14.20;5.57;;;;;;;;;;4281169;33;20165;-72
2021/10/16 12:18:58;;;;;;;16.20;4.60;;;;;;;;;;4288301;33;20259;-73
2021/10/16 12:21:24;;;;;;;13.23;4.05;;;;;;;;;;4300999;33;20159;-73
2021/10/16 12:23:49;;;;;;;11.43;3.80;;;;;;;;;;4287618;33;20156;-71
2021/10/16 12:26:21;;;;;;;15.05;3.95;;;;;;;;;;4300793;33;20156;-73
2021/10/16 12:28:49;;;;;;;13.05;3.53;;;;;;;;;;4285077;33;20256;-73
2021/10/16 12:31:14;;;;;;;9.98;3.08;;;;;;;;;;4299479;33;20203;-71
2021/10/16 12:33:55;;;;;;;10.63;3.37;;;;;;;;;;4301326;33;20136;-72
2021/10/16 12:36:27;;;;;;;12.98;3.12;;;;;;;;;;4287879;33;20657;-72
2021/10/16 12:38:53;;;;;;;10.15;2.37;;;;;;;;;;4300879;33;20155;-73
2021/10/16 12:41:21;;;;;;;6.87;2.45;;;;;;;;;;4287992;33;20184;-71
2021/10/16 12:43:46;;;;;;;7.20;2.22;;;;;;;;;;4301322;33;20155;-71
2021/10/16 12:46:28;;;;;;;8.25;2.53;;;;;;;;;;4287376;33;20161;-72
2021/10/16 12:48:54;;;;;;;9.35;2.22;;;;;;;;;;4301022;33;20136;-72
2021/10/16 12:51:36;;;;;;;11.12;2.20;;;;;;;;;;4298993;33;20152;-72
2021/10/16 12:54:02;;;;;;;9.98;2.55;;;;;;;;;;4284895;33;20191;-73
2021/10/16 12:56:30;;;;;;;7.90;2.17;;;;;;;;;;4273205;33;20228;-71
2021/10/16 12:58:59;;;;;;;12.18;2.87;;;;;;;;;;4289642;33;20137;-71
2021/10/16 13:01:25;;;;;;;10.40;2.75;;;;;;;;;;4287747;33;20227;-68
2021/10/16 13:03:50;;;;;;;8.48;2.55;;;;;;;;;;4300967;33;20155;-73
2021/10/16 13:06:16;;;;;;;11.23;2.50;;;;;;;;;;4301111;33;20129;-69
2021/10/16 13:08:41;;;;;;;9.60;2.15;;;;;;;;;;4300084;33;20167;-70
2021/10/16 13:11:09;;;;;;;8.48;1.80;;;;;;;;;;4300787;33;20543;-73
2021/10/16 13:13:35;;;;;;;9.00;2.70;;;;;;;;;;4300265;33;20220;-70
2021/10/16 13:16:00;;;;;;;10.95;2.83;;;;;;;;;;4300717;33;20204;-72
2021/10/16 13:18:25;;;;;;;7.87;2.08;;;;;;;;;;4287152;33;20730;-73
2021/10/16 13:20:53;;;;;;;5.57;1.95;;;;;;;;;;4288939;33;20640;-70
2021/10/16 13:23:18;;;;;;;9.13;4.55;;;;;;;;;;4300070;33;20136;-72
2021/10/16 13:25:46;;;;;;;10.88;2.00;;;;;;;;;;4286624;33;20188;-71
2021/10/16 13:28:12;;;;;;;9.93;2.17;;;;;;;;;;4299727;33;20306;-67
2021/10/16 13:30:37;;;;;;;9.32;2.25;;;;;;;;;;4287216;33;20582;-72
2021/10/16 13:33:02;;;;;;;7.53;2.08;;;;;;;;;;4300468;33;20147;-71
2021/10/16 13:35:28;;;;;;;7.43;1.85;;;;;;;;;;4300815;33;20488;-72
2021/10/16 13:38:15;;;;;;;5.87;1.83;;;;;;;;;;4300468;33;20152;-73
2021/10/16 13:40:39;;;;;;;4.10;1.52;;;;;;;;;;4298536;33;20160;-72
2021/10/16 13:43:13;;;;;;;9.15;2.15;;;;;;;;;;4288744;33;20176;-72
2021/10/16 13:45:39;;;;;;;8.35;2.17;;;;;;;;;;4289041;33;20161;-73
2021/10/16 13:48:04;;;;;;;7.57;1.80;;;;;;;;;;4302144;33;20144;-73
2021/10/16 13:50:29;;;;;;;8.63;1.85;;;;;;;;;;4302311;33;20529;-71
2021/10/16 13:52:56;;;;;;;6.85;1.58;;;;;;;;;;4288953;33;20653;-69
2021/10/16 13:55:21;;;;;;;5.18;1.40;;;;;;;;;;4303335;33;20145;-70
2021/10/16 13:57:47;;;;;;;10.82;2.10;;;;;;;;;;4290217;33;20604;-71
2021/10/16 14:00:12;;;;;;;8.85;1.70;;;;;;;;;;4284131;33;20188;-71
2021/10/16 14:02:37;;;;;;;5.85;1.52;;;;;;;;;;4289148;33;20188;-72
2021/10/16 14:05:03;;;;;;;7.78;2.00;;;;;;;;;;4288741;33;20168;-72
2021/10/16 14:07:28;;;;;;;10.48;2.05;;;;;;;;;;4294409;33;20222;-72
2021/10/16 14:09:54;;;;;;;9.00;1.90;;;;;;;;;;4308612;33;20145;-72
2021/10/16 14:12:19;;;;;;;7.50;2.05;;;;;;;;;;4288101;33;20449;-73
2021/10/16 14:14:44;;;;;;;8.75;1.95;;;;;;;;;;4303237;33;20148;-70
2021/10/16 14:17:09;;;;;;;6.15;2.30;;;;;;;;;;4302530;33;20171;-73
2021/10/16 14:19:35;;;;;;;8.88;1.77;;;;;;;;;;4302404;33;20516;-72
2021/10/16 14:22:01;;;;;;;8.80;1.75;;;;;;;;;;4302170;33;20149;-71
2021/10/16 14:24:27;;;;;;;5.68;1.75;;;;;;;;;;4289838;33;20187;-71
2021/10/16 14:26:52;;;;;;;8.82;2.30;;;;;;;;;;4314133;33;20160;-71
2021/10/16 14:29:20;;;;;;;8.32;2.05;;;;;;;;;;4315384;33;20543;-73
2021/10/16 14:31:45;;;;;;;7.43;1.80;;;;;;;;;;4300877;33;20227;-72
2021/10/16 14:34:11;;;;;;;8.50;1.70;;;;;;;;;;4286012;33;20214;-69
2021/10/16 14:36:36;;;;;;;9.00;2.00;;;;;;;;;;4302332;33;20182;-72
2021/10/16 14:39:01;;;;;;;10.25;1.85;;;;;;;;;;4289107;33;20219;-72
2021/10/16 14:41:27;;;;;;;6.90;1.85;;;;;;;;;;4302534;33;20528;-71
2021/10/16 14:43:52;;;;;;;6.82;2.30;;;;;;;;;;4302693;33;20133;-72
2021/10/16 14:46:17;;;;;;;11.75;2.62;;;;;;;;;;4288507;33;20276;-67
2021/10/16 14:48:42;;;;;;;6.35;2.08;;;;;;;;;;4289059;33;20576;-73
2021/10/16 14:51:08;;;;;;;10.75;3.05;;;;;;;;;;4288766;33;20185;-71
2021/10/16 14:53:33;;;;;;;10.15;3.22;;;;;;;;;;4301710;33;20570;-70
2021/10/16 14:55:58;;;;;;;9.90;2.60;;;;;;;;;;4302028;33;20530;-72
2021/10/16 14:58:24;;;;;;;7.57;2.22;;;;;;;;;;4301883;33;20469;-68
2021/10/16 15:00:51;;;;;;;11.20;3.92;;;;;;;;;;4289201;33;20219;-71
2021/10/16 15:03:17;;;;;;;6.18;2.08;;;;;;;;;;4302195;33;20145;-71
2021/10/16 15:05:42;;;;;;;8.23;2.65;;;;;;;;;;4288482;33;20272;-72
2021/10/16 15:08:07;;;;;;;8.60;2.78;;;;;;;;;;4288395;33;20168;-70
2021/10/16 15:10:33;;;;;;;9.63;2.85;;;;;;;;;;4288933;33;20200;-73
2021/10/16 15:12:58;;;;;;;11.20;4.12;;;;;;;;;;4301753;33;20137;-73
2021/10/16 15:15:27;;;;;;;18.67;5.68;;;;;;;;;;4288529;33;20198;-72
2021/10/16 15:17:53;;;;;;;7.37;2.20;;;;;;;;;;4302118;33;20208;-73